createdAt,value
2019-02-21T00:00:23.748Z,68.08
2019-02-21T00:01:22.613Z,67.87
2019-02-21T00:02:26.208Z,67.86
2019-02-21T00:03:29.788Z,67.85
2019-02-21T00:04:33.294Z,67.81
2019-02-21T00:05:36.797Z,67.86
2019-02-21T00:06:40.305Z,67.92
2019-02-21T00:07:43.739Z,67.97
2019-02-21T00:08:47.271Z,68.14
2019-02-21T00:09:50.714Z,68.24
2019-02-21T00:10:54.142Z,68.25
2019-02-21T00:11:57.565Z,68.21
2019-02-21T00:13:00.998Z,68.08
2019-02-21T00:14:04.700Z,68.09
2019-02-21T00:15:08.486Z,68.19
2019-02-21T00:16:11.986Z,68.22
2019-02-21T00:17:15.446Z,68.21
2019-02-21T00:18:18.883Z,68.16
2019-02-21T00:19:22.316Z,68.10
2019-02-21T00:20:25.770Z,68.01
2019-02-21T00:21:29.272Z,68.03
2019-02-21T00:22:32.701Z,68.09
2019-02-21T00:23:36.136Z,68.17
2019-02-21T00:24:40.126Z,68.39
2019-02-21T00:25:43.692Z,68.60
2019-02-21T00:26:47.110Z,68.76
2019-02-21T00:27:50.535Z,68.77
2019-02-21T00:28:54.042Z,68.82
2019-02-21T00:29:57.558Z,68.70
2019-02-21T00:31:01.009Z,68.74
2019-02-21T00:32:04.446Z,68.81
2019-02-21T00:33:07.878Z,69.04
2019-02-21T00:34:11.335Z,69.33
2019-02-21T00:35:14.757Z,69.35
2019-02-21T00:36:18.205Z,69.27
2019-02-21T00:37:21.634Z,69.19
2019-02-21T00:38:25.067Z,69.05
2019-02-21T00:39:28.566Z,68.85
2019-02-21T00:40:32.067Z,68.91
2019-02-21T00:41:35.525Z,68.86
2019-02-21T00:42:39.028Z,68.75
2019-02-21T00:43:42.536Z,68.61
2019-02-21T00:44:45.965Z,68.48
2019-02-21T00:45:49.403Z,68.39
2019-02-21T00:46:52.858Z,68.38
2019-02-21T00:47:56.329Z,68.42
2019-02-21T00:48:59.808Z,68.38
2019-02-21T00:50:03.249Z,68.39
2019-02-21T00:51:06.748Z,68.46
2019-02-21T00:52:10.246Z,68.54
2019-02-21T00:53:13.671Z,68.63
2019-02-21T00:54:17.108Z,68.65
2019-02-21T00:55:20.574Z,68.59
2019-02-21T00:56:23.994Z,68.58
2019-02-21T00:57:27.514Z,68.59
2019-02-21T00:58:30.955Z,68.49
2019-02-21T00:59:34.388Z,68.58
2019-02-21T01:00:45.973Z,68.64
2019-02-21T01:01:43.571Z,68.72
2019-02-21T01:02:47.051Z,68.80
2019-02-21T01:03:50.500Z,68.83
2019-02-21T01:04:53.932Z,68.83
2019-02-21T01:05:57.373Z,68.83
2019-02-21T01:07:00.804Z,68.86
2019-02-21T01:08:04.497Z,68.88
2019-02-21T01:09:08.112Z,68.92
2019-02-21T01:10:11.623Z,68.95
2019-02-21T01:11:15.128Z,68.98
2019-02-21T01:12:18.621Z,69.17
2019-02-21T01:13:22.148Z,69.26
2019-02-21T01:14:25.730Z,69.24
2019-02-21T01:15:29.175Z,69.29
2019-02-21T01:16:32.616Z,69.36
2019-02-21T01:17:36.178Z,69.29
2019-02-21T01:18:39.630Z,69.26
2019-02-21T01:19:43.125Z,69.30
2019-02-21T01:20:46.630Z,69.21
2019-02-21T01:21:50.139Z,69.19
2019-02-21T01:22:53.559Z,69.21
2019-02-21T01:23:57.019Z,69.19
2019-02-21T01:25:00.628Z,69.16
2019-02-21T01:26:04.158Z,69.09
2019-02-21T01:27:07.742Z,69.13
2019-02-21T01:28:11.185Z,69.02
2019-02-21T01:29:14.639Z,69.04
2019-02-21T01:30:18.209Z,68.89
2019-02-21T01:31:21.706Z,68.82
2019-02-21T01:32:25.142Z,68.79
2019-02-21T01:33:28.571Z,68.70
2019-02-21T01:34:32.101Z,68.68
2019-02-21T01:35:35.541Z,68.76
2019-02-21T01:36:38.988Z,68.67
2019-02-21T01:37:42.486Z,68.53
2019-02-21T01:38:45.964Z,68.51
2019-02-21T01:39:49.397Z,68.43
2019-02-21T01:40:52.848Z,68.33
2019-02-21T01:41:56.294Z,68.28
2019-02-21T01:42:59.726Z,68.29
2019-02-21T01:44:04.662Z,68.36
2019-02-21T01:45:09.447Z,68.44
2019-02-21T01:46:12.883Z,68.33
2019-02-21T01:47:16.382Z,68.19
2019-02-21T01:48:19.825Z,68.21
2019-02-21T01:49:23.351Z,68.19
2019-02-21T01:50:26.868Z,68.04
2019-02-21T01:51:30.314Z,67.98
2019-02-21T01:52:33.752Z,67.93
2019-02-21T01:53:37.183Z,67.83
2019-02-21T01:54:40.611Z,67.72
2019-02-21T01:55:44.245Z,67.64
2019-02-21T01:56:47.687Z,67.59
2019-02-21T01:57:51.187Z,67.43
2019-02-21T01:58:54.618Z,67.29
2019-02-21T01:59:58.053Z,67.31
2019-02-21T02:01:08.458Z,67.35
2019-02-21T02:02:06.751Z,67.48
2019-02-21T02:03:10.324Z,67.51
2019-02-21T02:04:13.764Z,67.44
2019-02-21T02:05:17.266Z,67.39
2019-02-21T02:06:20.712Z,67.37
2019-02-21T02:07:24.172Z,67.36
2019-02-21T02:08:27.572Z,67.36
2019-02-21T02:09:31.015Z,67.57
2019-02-21T02:10:34.436Z,67.62
2019-02-21T02:11:38.004Z,67.70
2019-02-21T02:12:41.440Z,67.73
2019-02-21T02:13:44.872Z,67.65
2019-02-21T02:14:48.305Z,67.59
2019-02-21T02:15:51.743Z,67.58
2019-02-21T02:16:55.219Z,67.46
2019-02-21T02:17:58.652Z,67.58
2019-02-21T02:19:02.101Z,67.50
2019-02-21T02:20:07.560Z,67.54
2019-02-21T02:21:11.000Z,67.55
2019-02-21T02:22:14.445Z,67.55
2019-02-21T02:23:17.868Z,67.60
2019-02-21T02:24:21.327Z,67.61
2019-02-21T02:25:24.749Z,67.50
2019-02-21T02:26:28.186Z,67.48
2019-02-21T02:27:31.705Z,67.55
2019-02-21T02:28:35.274Z,67.63
2019-02-21T02:29:38.740Z,67.71
2019-02-21T02:30:42.161Z,67.75
2019-02-21T02:31:46.068Z,67.84
2019-02-21T02:32:49.595Z,67.93
2019-02-21T02:33:53.026Z,67.95
2019-02-21T02:34:56.486Z,67.99
2019-02-21T02:35:59.912Z,68.15
2019-02-21T02:37:03.365Z,68.23
2019-02-21T02:38:06.883Z,68.39
2019-02-21T02:39:10.397Z,68.49
2019-02-21T02:40:13.893Z,68.47
2019-02-21T02:41:17.377Z,68.50
2019-02-21T02:42:20.766Z,68.51
2019-02-21T02:43:24.230Z,68.42
2019-02-21T02:44:27.677Z,68.32
2019-02-21T02:45:31.110Z,68.21
2019-02-21T02:46:34.606Z,68.14
2019-02-21T02:47:38.107Z,68.13
2019-02-21T02:48:41.555Z,68.16
2019-02-21T02:49:44.983Z,68.17
2019-02-21T02:50:48.415Z,68.28
2019-02-21T02:51:51.909Z,68.34
2019-02-21T02:52:55.340Z,68.29
2019-02-21T02:53:58.793Z,68.29
2019-02-21T02:55:02.281Z,68.33
2019-02-21T02:56:05.779Z,68.36
2019-02-21T02:57:09.225Z,68.49
2019-02-21T02:58:12.656Z,68.48
2019-02-21T02:59:16.101Z,68.51
2019-02-21T03:00:19.604Z,68.47
2019-02-21T03:01:34.455Z,68.33
2019-02-21T03:02:28.191Z,68.30
2019-02-21T03:03:31.636Z,68.25
2019-02-21T03:04:35.105Z,68.22
2019-02-21T03:05:38.634Z,68.28
2019-02-21T03:06:42.065Z,68.33
2019-02-21T03:07:45.508Z,68.40
2019-02-21T03:08:48.952Z,68.38
2019-02-21T03:09:52.422Z,68.24
2019-02-21T03:10:55.906Z,68.19
2019-02-21T03:11:59.340Z,68.07
2019-02-21T03:13:02.779Z,67.97
2019-02-21T03:14:06.202Z,68.03
2019-02-21T03:15:09.784Z,68.17
2019-02-21T03:16:13.214Z,68.11
2019-02-21T03:17:16.646Z,68.19
2019-02-21T03:18:20.149Z,68.32
2019-02-21T03:19:23.950Z,68.34
2019-02-21T03:20:27.402Z,68.45
2019-02-21T03:21:30.844Z,68.53
2019-02-21T03:22:34.283Z,68.74
2019-02-21T03:23:37.715Z,68.91
2019-02-21T03:24:41.148Z,69.04
2019-02-21T03:25:44.603Z,69.09
2019-02-21T03:26:48.038Z,69.21
2019-02-21T03:27:51.476Z,69.13
2019-02-21T03:28:54.908Z,69.10
2019-02-21T03:29:58.353Z,69.08
2019-02-21T03:31:01.800Z,69.10
2019-02-21T03:32:05.390Z,69.12
2019-02-21T03:33:08.848Z,69.15
2019-02-21T03:34:12.285Z,69.16
2019-02-21T03:35:15.715Z,69.14
2019-02-21T03:36:19.247Z,69.06
2019-02-21T03:37:22.739Z,69.02
2019-02-21T03:38:26.166Z,68.96
2019-02-21T03:39:29.605Z,68.87
2019-02-21T03:40:33.109Z,68.82
2019-02-21T03:41:36.878Z,68.76
2019-02-21T03:42:40.335Z,68.85
2019-02-21T03:43:43.771Z,68.88
2019-02-21T03:44:47.277Z,68.98
2019-02-21T03:45:50.719Z,69.05
2019-02-21T03:46:54.173Z,69.09
2019-02-21T03:47:57.614Z,69.28
2019-02-21T03:49:01.055Z,69.36
2019-02-21T03:50:06.229Z,69.40
2019-02-21T03:51:09.747Z,69.44
2019-02-21T03:52:13.196Z,69.44
2019-02-21T03:53:16.646Z,69.51
2019-02-21T03:54:20.153Z,69.56
2019-02-21T03:55:23.670Z,69.52
2019-02-21T03:56:27.196Z,69.56
2019-02-21T03:57:30.658Z,69.59
2019-02-21T03:58:34.186Z,69.47
2019-02-21T03:59:37.754Z,69.38
2019-02-21T04:00:41.258Z,69.39
2019-02-21T04:01:44.753Z,69.38
2019-02-21T04:02:48.286Z,69.38
2019-02-21T04:03:51.879Z,69.34
2019-02-21T04:04:55.447Z,69.35
2019-02-21T04:05:58.887Z,69.41
2019-02-21T04:07:02.397Z,69.44
2019-02-21T04:08:05.842Z,69.41
2019-02-21T04:09:09.289Z,69.40
2019-02-21T04:10:13.078Z,69.41
2019-02-21T04:11:16.499Z,69.40
2019-02-21T04:12:19.993Z,69.39
2019-02-21T04:13:23.388Z,69.44
2019-02-21T04:14:26.961Z,69.41
2019-02-21T04:15:30.454Z,69.35
2019-02-21T04:16:33.895Z,69.36
2019-02-21T04:17:37.332Z,69.48
2019-02-21T04:18:40.852Z,69.56
2019-02-21T04:19:44.304Z,69.47
2019-02-21T04:20:47.731Z,69.44
2019-02-21T04:21:51.232Z,69.52
2019-02-21T04:22:54.667Z,69.56
2019-02-21T04:23:58.113Z,69.58
2019-02-21T04:25:01.542Z,69.55
2019-02-21T04:26:04.971Z,69.52
2019-02-21T04:27:08.493Z,69.60
2019-02-21T04:28:11.961Z,69.76
2019-02-21T04:29:15.419Z,69.93
2019-02-21T04:30:18.875Z,69.99
2019-02-21T04:31:22.309Z,70.08
2019-02-21T04:32:25.737Z,70.05
2019-02-21T04:33:29.167Z,70.01
2019-02-21T04:34:32.631Z,70.02
2019-02-21T04:35:36.143Z,69.94
2019-02-21T04:36:39.575Z,70.05
2019-02-21T04:37:43.016Z,70.23
2019-02-21T04:38:46.464Z,70.28
2019-02-21T04:39:49.918Z,70.38
2019-02-21T04:40:53.446Z,70.46
2019-02-21T04:41:56.876Z,70.55
2019-02-21T04:43:00.388Z,70.49
2019-02-21T04:44:04.249Z,70.37
2019-02-21T04:45:07.851Z,70.29
2019-02-21T04:46:11.308Z,70.22
2019-02-21T04:47:14.773Z,70.18
2019-02-21T04:48:18.201Z,70.16
2019-02-21T04:49:21.648Z,70.16
2019-02-21T04:50:25.105Z,70.19
2019-02-21T04:51:28.537Z,70.20
2019-02-21T04:52:31.965Z,70.20
2019-02-21T04:53:35.410Z,70.18
2019-02-21T04:54:38.850Z,70.06
2019-02-21T04:55:42.297Z,70.13
2019-02-21T04:56:45.726Z,70.11
2019-02-21T04:57:57.378Z,70.03
2019-02-21T04:59:00.822Z,69.96
2019-02-21T05:00:06.433Z,69.95
2019-02-21T05:01:09.898Z,69.83
2019-02-21T05:02:13.413Z,69.82
2019-02-21T05:03:17.055Z,69.82
2019-02-21T05:04:20.488Z,69.84
2019-02-21T05:05:23.915Z,69.83
2019-02-21T05:06:27.382Z,69.89
2019-02-21T05:07:30.861Z,69.94
2019-02-21T05:08:34.282Z,69.93
2019-02-21T05:09:37.719Z,69.86
2019-02-21T05:10:41.172Z,69.89
2019-02-21T05:11:44.625Z,69.95
2019-02-21T05:12:48.069Z,70.01
2019-02-21T05:13:51.500Z,70.09
2019-02-21T05:14:54.946Z,70.16
2019-02-21T05:15:58.487Z,70.20
2019-02-21T05:17:02.020Z,70.34
2019-02-21T05:18:05.541Z,70.46
2019-02-21T05:19:08.983Z,70.52
2019-02-21T05:20:12.406Z,70.58
2019-02-21T05:21:15.839Z,70.62
2019-02-21T05:22:19.286Z,70.73
2019-02-21T05:23:22.753Z,70.76
2019-02-21T05:24:26.230Z,70.66
2019-02-21T05:25:29.660Z,70.67
2019-02-21T05:26:40.918Z,70.71
2019-02-21T05:27:45.643Z,70.83
2019-02-21T05:28:49.112Z,70.96
2019-02-21T05:29:52.509Z,70.93
2019-02-21T05:30:57.644Z,70.99
2019-02-21T05:32:14.205Z,70.96
2019-02-21T05:33:35.308Z,70.96
2019-02-21T05:34:40.396Z,70.81
2019-02-21T05:35:45.578Z,70.74
2019-02-21T05:36:53.347Z,70.66
2019-02-21T05:38:01.165Z,70.62
2019-02-21T05:39:19.293Z,70.66
2019-02-21T05:40:28.657Z,70.66
2019-02-21T05:41:51.477Z,70.70
2019-02-21T05:43:11.429Z,70.66
2019-02-21T05:44:25.243Z,70.63
2019-02-21T05:45:32.880Z,70.81
2019-02-21T05:46:52.776Z,70.90
2019-02-21T05:48:06.824Z,70.89
2019-02-21T05:49:14.961Z,70.98
2019-02-21T05:50:20.033Z,70.92
2019-02-21T05:51:30.748Z,70.91
2019-02-21T05:52:35.837Z,70.89
2019-02-21T05:53:46.695Z,70.77
2019-02-21T05:55:00.605Z,70.77
2019-02-21T05:56:20.786Z,70.72
2019-02-21T05:57:34.918Z,70.77
2019-02-21T05:58:39.987Z,70.88
2019-02-21T05:59:50.765Z,70.91
2019-02-21T06:01:04.746Z,71.06
2019-02-21T06:02:09.817Z,71.08
2019-02-21T06:03:20.848Z,70.96
2019-02-21T06:04:43.905Z,70.88
2019-02-21T06:05:51.472Z,70.85
2019-02-21T06:07:05.318Z,70.81
2019-02-21T06:08:25.372Z,70.75
2019-02-21T06:09:33.105Z,70.58
2019-02-21T06:10:49.856Z,70.59
2019-02-21T06:12:00.510Z,70.60
2019-02-21T06:13:08.299Z,70.64
2019-02-21T06:14:29.432Z,70.56
2019-02-21T06:15:50.191Z,70.50
2019-02-21T06:17:11.270Z,70.43
2019-02-21T06:18:17.842Z,70.58
2019-02-21T06:19:25.885Z,70.58
2019-02-21T06:20:33.945Z,70.56
2019-02-21T06:21:47.866Z,70.52
2019-02-21T06:22:54.518Z,70.56
2019-02-21T06:24:14.537Z,70.64
2019-02-21T06:25:30.301Z,70.67
2019-02-21T06:26:35.807Z,70.88
2019-02-21T06:27:40.876Z,71.09
2019-02-21T06:28:54.965Z,71.14
2019-02-21T06:30:02.570Z,71.16
2019-02-21T06:31:07.976Z,71.22
2019-02-21T06:32:14.473Z,71.17
2019-02-21T06:33:16.866Z,71.08
2019-02-21T06:34:20.374Z,70.99
2019-02-21T06:35:23.819Z,71.15
2019-02-21T06:36:27.355Z,71.24
2019-02-21T06:37:30.779Z,71.27
2019-02-21T06:38:34.232Z,71.24
2019-02-21T06:39:37.789Z,71.21
2019-02-21T06:40:41.227Z,71.09
2019-02-21T06:41:44.822Z,70.99
2019-02-21T06:42:48.348Z,70.87
2019-02-21T06:43:52.820Z,70.74
2019-02-21T06:44:56.480Z,70.80
2019-02-21T06:46:00.101Z,70.84
2019-02-21T06:47:03.613Z,70.78
2019-02-21T06:48:07.090Z,70.88
2019-02-21T06:49:10.923Z,70.88
2019-02-21T06:50:14.659Z,70.98
2019-02-21T06:51:18.210Z,71.03
2019-02-21T06:52:21.689Z,70.98
2019-02-21T06:53:25.170Z,70.93
2019-02-21T06:54:28.600Z,70.88
2019-02-21T06:55:32.032Z,70.78
2019-02-21T06:56:35.462Z,70.83
2019-02-21T06:57:38.971Z,70.81
2019-02-21T06:58:42.470Z,70.84
2019-02-21T06:59:45.900Z,70.83
2019-02-21T07:00:49.339Z,70.82
2019-02-21T07:01:52.770Z,70.69
2019-02-21T07:02:56.235Z,70.57
2019-02-21T07:04:01.840Z,70.50
2019-02-21T07:05:05.049Z,70.67
2019-02-21T07:06:08.512Z,70.70
2019-02-21T07:07:12.021Z,70.69
2019-02-21T07:08:15.471Z,70.73
2019-02-21T07:09:18.912Z,70.63
2019-02-21T07:10:22.352Z,70.49
2019-02-21T07:11:25.773Z,70.39
2019-02-21T07:12:29.220Z,70.35
2019-02-21T07:13:32.687Z,70.29
2019-02-21T07:14:36.191Z,70.27
2019-02-21T07:15:39.703Z,70.27
2019-02-21T07:16:43.213Z,70.28
2019-02-21T07:17:49.580Z,70.29
2019-02-21T07:18:51.852Z,70.18
2019-02-21T07:19:55.281Z,70.26
2019-02-21T07:20:58.819Z,70.24
2019-02-21T07:22:02.264Z,70.23
2019-02-21T07:23:05.748Z,70.22
2019-02-21T07:24:09.179Z,70.10
2019-02-21T07:25:20.356Z,69.93
2019-02-21T07:26:23.777Z,69.80
2019-02-21T07:27:27.278Z,69.65
2019-02-21T07:28:30.818Z,69.55
2019-02-21T07:29:34.239Z,69.43
2019-02-21T07:30:37.748Z,69.38
2019-02-21T07:31:41.253Z,69.19
2019-02-21T07:32:44.759Z,69.12
2019-02-21T07:33:48.492Z,69.14
2019-02-21T07:34:51.965Z,68.90
2019-02-21T07:35:55.395Z,68.89
2019-02-21T07:36:58.903Z,68.85
2019-02-21T07:38:02.477Z,68.72
2019-02-21T07:39:16.863Z,68.55
2019-02-21T07:40:19.733Z,68.39
2019-02-21T07:41:18.692Z,68.29
2019-02-21T07:42:22.235Z,68.10
2019-02-21T07:43:25.705Z,68.10
2019-02-21T07:44:29.170Z,67.61
2019-02-21T07:45:32.756Z,67.57
2019-02-21T07:46:36.199Z,67.24
2019-02-21T07:47:39.632Z,67.25
2019-02-21T07:48:43.061Z,67.40
2019-02-21T07:49:46.525Z,67.34
2019-02-21T07:50:49.955Z,67.23
2019-02-21T07:51:53.400Z,67.14
2019-02-21T07:53:02.483Z,66.83
2019-02-21T07:54:01.990Z,66.71
2019-02-21T07:55:07.584Z,66.64
2019-02-21T07:56:11.112Z,66.29
2019-02-21T07:57:14.522Z,66.01
2019-02-21T07:58:17.965Z,66.28
2019-02-21T07:59:21.398Z,66.27
2019-02-21T08:00:24.960Z,66.03
2019-02-21T08:01:28.435Z,65.78
2019-02-21T08:02:31.824Z,65.93
2019-02-21T08:03:43.766Z,65.84
2019-02-21T08:04:40.414Z,65.55
2019-02-21T08:05:43.875Z,65.62
2019-02-21T08:06:47.315Z,65.45
2019-02-21T08:07:50.853Z,65.54
2019-02-21T08:08:54.332Z,65.44
2019-02-21T08:09:57.932Z,65.20
2019-02-21T08:11:01.480Z,65.12
2019-02-21T08:12:05.343Z,64.64
2019-02-21T08:13:08.847Z,64.89
2019-02-21T08:14:12.278Z,64.86
2019-02-21T08:15:15.785Z,64.59
2019-02-21T08:16:19.247Z,64.63
2019-02-21T08:17:22.687Z,64.51
2019-02-21T08:18:26.117Z,64.60
2019-02-21T08:19:29.636Z,64.66
2019-02-21T08:20:37.075Z,64.68
2019-02-21T08:21:38.487Z,64.54
2019-02-21T08:22:41.949Z,64.33
2019-02-21T08:23:50.642Z,64.11
2019-02-21T08:24:50.536Z,63.93
2019-02-21T08:25:53.992Z,63.78
2019-02-21T08:26:57.442Z,63.80
2019-02-21T08:28:00.946Z,63.72
2019-02-21T08:29:06.141Z,63.59
2019-02-21T08:30:12.809Z,63.60
2019-02-21T08:31:16.267Z,63.43
2019-02-21T08:32:21.334Z,63.41
2019-02-21T08:33:29.111Z,63.41
2019-02-21T08:34:36.867Z,63.46
2019-02-21T08:35:40.301Z,63.29
2019-02-21T08:36:43.762Z,63.23
2019-02-21T08:37:47.211Z,63.23
2019-02-21T08:38:50.649Z,63.15
2019-02-21T08:39:54.076Z,63.13
2019-02-21T08:40:57.517Z,63.02
2019-02-21T08:42:00.977Z,62.92
2019-02-21T08:43:04.566Z,62.83
2019-02-21T08:44:08.071Z,62.87
2019-02-21T08:45:11.718Z,62.72
2019-02-21T08:46:18.138Z,62.46
2019-02-21T08:47:20.405Z,62.41
2019-02-21T08:48:23.835Z,62.22
2019-02-21T08:49:27.354Z,62.37
2019-02-21T08:50:30.843Z,62.28
2019-02-21T08:51:34.323Z,62.18
2019-02-21T08:52:37.776Z,62.26
2019-02-21T08:53:41.257Z,62.09
2019-02-21T08:54:44.729Z,62.20
2019-02-21T08:55:48.138Z,62.16
2019-02-21T08:56:51.670Z,62.16
2019-02-21T08:57:55.127Z,62.07
2019-02-21T08:58:58.572Z,62.33
2019-02-21T09:00:02.009Z,62.26
2019-02-21T09:01:05.683Z,62.24
2019-02-21T09:02:09.261Z,61.96
2019-02-21T09:03:12.767Z,62.02
2019-02-21T09:04:26.801Z,62.18
2019-02-21T09:05:21.662Z,62.01
2019-02-21T09:06:25.170Z,62.05
2019-02-21T09:07:28.842Z,62.00
2019-02-21T09:08:36.799Z,61.94
2019-02-21T09:09:37.522Z,61.99
2019-02-21T09:10:41.033Z,62.02
2019-02-21T09:11:44.539Z,61.99
2019-02-21T09:12:48.732Z,61.94
2019-02-21T09:13:52.377Z,61.83
2019-02-21T09:14:55.842Z,61.88
2019-02-21T09:15:59.357Z,61.79
2019-02-21T09:17:02.787Z,61.73
2019-02-21T09:18:06.204Z,61.60
2019-02-21T09:19:09.753Z,61.56
2019-02-21T09:20:13.240Z,61.56
2019-02-21T09:21:16.701Z,61.42
2019-02-21T09:22:20.194Z,61.29
2019-02-21T09:23:23.629Z,61.33
2019-02-21T09:24:38.034Z,61.28
2019-02-21T09:25:32.300Z,61.19
2019-02-21T09:26:35.740Z,61.30
2019-02-21T09:27:39.251Z,61.37
2019-02-21T09:28:42.758Z,61.37
2019-02-21T09:29:46.227Z,61.50
2019-02-21T09:30:49.680Z,61.44
2019-02-21T09:31:53.154Z,61.24
2019-02-21T09:32:56.558Z,61.33
2019-02-21T09:33:59.994Z,61.28
2019-02-21T09:35:03.518Z,61.07
2019-02-21T09:36:06.969Z,60.77
2019-02-21T09:37:10.467Z,60.77
2019-02-21T09:38:13.891Z,60.77
2019-02-21T09:39:17.317Z,60.70
2019-02-21T09:40:20.766Z,60.70
2019-02-21T09:41:24.270Z,60.86
2019-02-21T09:42:27.794Z,61.05
2019-02-21T09:43:31.230Z,61.05
2019-02-21T09:44:35.897Z,60.92
2019-02-21T09:45:39.435Z,61.11
2019-02-21T09:46:42.866Z,61.13
2019-02-21T09:47:46.383Z,61.06
2019-02-21T09:48:49.820Z,60.98
2019-02-21T09:49:53.291Z,60.95
2019-02-21T09:50:56.820Z,60.92
2019-02-21T09:52:00.344Z,60.97
2019-02-21T09:53:03.852Z,60.98
2019-02-21T09:54:07.391Z,60.48
2019-02-21T09:55:13.865Z,60.71
2019-02-21T09:56:17.317Z,60.71
2019-02-21T09:57:20.841Z,60.53
2019-02-21T09:58:24.341Z,60.51
2019-02-21T09:59:28.845Z,60.42
2019-02-21T10:00:32.365Z,60.42
2019-02-21T10:01:35.912Z,60.25
2019-02-21T10:02:41.958Z,60.25
2019-02-21T10:03:44.655Z,60.42
2019-02-21T10:04:48.100Z,60.63
2019-02-21T10:05:51.652Z,60.74
2019-02-21T10:06:55.106Z,60.69
2019-02-21T10:07:58.563Z,60.61
2019-02-21T10:09:02.063Z,60.61
2019-02-21T10:10:08.712Z,60.40
2019-02-21T10:11:12.271Z,60.41
2019-02-21T10:12:15.744Z,60.39
2019-02-21T10:13:19.323Z,60.38
2019-02-21T10:14:22.811Z,60.20
2019-02-21T10:15:26.313Z,60.05
2019-02-21T10:16:29.772Z,59.85
2019-02-21T10:17:33.214Z,59.93
2019-02-21T10:18:36.703Z,59.88
2019-02-21T10:19:40.146Z,59.93
2019-02-21T10:20:43.650Z,59.87
2019-02-21T10:21:47.237Z,59.87
2019-02-21T10:22:50.741Z,59.87
2019-02-21T10:23:56.602Z,59.73
2019-02-21T10:24:59.381Z,59.72
2019-02-21T10:26:02.841Z,59.62
2019-02-21T10:27:06.455Z,59.72
2019-02-21T10:28:09.920Z,59.77
2019-02-21T10:29:13.364Z,59.67
2019-02-21T10:30:19.043Z,59.55
2019-02-21T10:31:22.544Z,59.43
2019-02-21T10:32:26.044Z,59.10
2019-02-21T10:33:29.452Z,58.82
2019-02-21T10:34:42.518Z,58.78
2019-02-21T10:35:38.167Z,58.44
2019-02-21T10:36:41.637Z,58.42
2019-02-21T10:37:45.110Z,58.30
2019-02-21T10:38:48.636Z,57.84
2019-02-21T10:39:52.166Z,58.12
2019-02-21T10:40:55.661Z,58.00
2019-02-21T10:41:59.037Z,58.00
2019-02-21T10:43:02.477Z,57.71
2019-02-21T10:44:06.145Z,57.72
2019-02-21T10:45:12.574Z,57.69
2019-02-21T10:46:16.085Z,57.47
2019-02-21T10:47:19.590Z,57.46
2019-02-21T10:48:23.093Z,57.44
2019-02-21T10:49:26.564Z,57.45
2019-02-21T10:50:30.203Z,57.31
2019-02-21T10:51:33.675Z,56.83
2019-02-21T10:52:37.090Z,57.18
2019-02-21T10:53:40.611Z,57.20
2019-02-21T10:54:44.067Z,57.13
2019-02-21T10:55:48.165Z,57.08
2019-02-21T10:56:51.576Z,57.21
2019-02-21T10:57:55.016Z,57.32
2019-02-21T10:58:58.493Z,57.48
2019-02-21T11:00:01.948Z,57.35
2019-02-21T11:01:05.546Z,57.57
2019-02-21T11:02:09.065Z,57.72
2019-02-21T11:03:12.632Z,57.72
2019-02-21T11:04:16.083Z,57.64
2019-02-21T11:05:19.702Z,57.75
2019-02-21T11:06:23.171Z,57.61
2019-02-21T11:07:26.611Z,57.62
2019-02-21T11:08:30.055Z,57.32
2019-02-21T11:09:33.544Z,57.26
2019-02-21T11:10:37.105Z,57.24
2019-02-21T11:11:40.638Z,57.18
2019-02-21T11:12:44.133Z,57.04
2019-02-21T11:13:47.665Z,57.19
2019-02-21T11:14:51.192Z,57.16
2019-02-21T11:15:54.715Z,57.13
2019-02-21T11:16:58.234Z,56.91
2019-02-21T11:18:01.672Z,56.89
2019-02-21T11:19:05.198Z,56.69
2019-02-21T11:20:11.666Z,56.85
2019-02-21T11:21:15.721Z,56.29
2019-02-21T11:22:19.202Z,56.28
2019-02-21T11:23:22.620Z,56.53
2019-02-21T11:24:26.122Z,56.52
2019-02-21T11:25:29.580Z,56.60
2019-02-21T11:26:33.095Z,56.51
2019-02-21T11:27:36.627Z,56.76
2019-02-21T11:28:40.075Z,56.71
2019-02-21T11:29:43.574Z,56.69
2019-02-21T11:30:47.024Z,56.86
2019-02-21T11:31:50.552Z,56.95
2019-02-21T11:32:54.081Z,56.90
2019-02-21T11:33:57.522Z,56.92
2019-02-21T11:35:06.087Z,56.99
2019-02-21T11:36:06.195Z,56.88
2019-02-21T11:37:09.663Z,56.85
2019-02-21T11:38:13.178Z,56.76
2019-02-21T11:39:16.690Z,56.81
2019-02-21T11:40:20.268Z,56.79
2019-02-21T11:41:23.736Z,56.77
2019-02-21T11:42:27.267Z,56.87
2019-02-21T11:43:30.768Z,56.94
2019-02-21T11:44:34.212Z,56.94
2019-02-21T11:45:37.791Z,56.97
2019-02-21T11:46:41.319Z,56.89
2019-02-21T11:47:44.790Z,56.85
2019-02-21T11:48:48.225Z,56.89
2019-02-21T11:49:51.733Z,56.97
2019-02-21T11:50:55.166Z,56.89
2019-02-21T11:52:09.625Z,56.82
2019-02-21T11:53:03.926Z,56.76
2019-02-21T11:54:07.609Z,56.53
2019-02-21T11:55:13.649Z,56.46
2019-02-21T11:56:17.090Z,56.42
2019-02-21T11:57:20.833Z,56.36
2019-02-21T11:58:24.280Z,56.11
2019-02-21T11:59:27.725Z,56.12
2019-02-21T12:00:31.683Z,56.03
2019-02-21T12:01:35.191Z,55.46
2019-02-21T12:02:39.187Z,55.68
2019-02-21T12:03:42.736Z,55.15
2019-02-21T12:04:46.243Z,55.26
2019-02-21T12:05:49.680Z,55.11
2019-02-21T12:06:53.323Z,54.65
2019-02-21T12:07:56.831Z,54.09
2019-02-21T12:09:00.323Z,53.38
2019-02-21T12:10:05.502Z,53.19
2019-02-21T12:11:08.942Z,52.75
2019-02-21T12:12:12.401Z,52.71
2019-02-21T12:13:15.962Z,52.24
2019-02-21T12:14:19.418Z,52.33
2019-02-21T12:15:23.240Z,52.51
2019-02-21T12:16:26.767Z,52.08
2019-02-21T12:17:30.256Z,52.31
2019-02-21T12:18:33.961Z,52.36
2019-02-21T12:19:37.492Z,52.44
2019-02-21T12:20:40.945Z,52.52
2019-02-21T12:21:44.684Z,52.49
2019-02-21T12:22:48.380Z,52.26
2019-02-21T12:23:51.817Z,52.16
2019-02-21T12:24:55.433Z,52.50
2019-02-21T12:25:58.964Z,52.60
2019-02-21T12:27:02.408Z,52.55
2019-02-21T12:28:05.995Z,52.66
2019-02-21T12:29:09.407Z,52.41
2019-02-21T12:30:17.781Z,52.34
2019-02-21T12:31:21.221Z,52.25
2019-02-21T12:32:24.897Z,52.61
2019-02-21T12:33:28.387Z,52.56
2019-02-21T12:34:31.810Z,52.50
2019-02-21T12:35:35.413Z,52.19
2019-02-21T12:36:38.925Z,52.45
2019-02-21T12:37:42.563Z,52.57
2019-02-21T12:38:46.073Z,52.58
2019-02-21T12:39:49.640Z,52.60
2019-02-21T12:40:53.352Z,52.59
2019-02-21T12:41:56.793Z,52.60
2019-02-21T12:43:00.230Z,52.56
2019-02-21T12:44:03.790Z,52.36
2019-02-21T12:45:13.133Z,52.49
2019-02-21T12:46:16.732Z,52.39
2019-02-21T12:47:20.253Z,52.35
2019-02-21T12:48:23.786Z,52.10
2019-02-21T12:49:27.426Z,52.19
2019-02-21T12:50:30.872Z,52.26
2019-02-21T12:51:34.429Z,51.99
2019-02-21T12:52:37.938Z,51.92
2019-02-21T12:53:41.376Z,52.47
2019-02-21T12:54:45.086Z,52.55
2019-02-21T12:55:48.613Z,52.40
2019-02-21T12:56:52.072Z,52.44
2019-02-21T12:57:55.715Z,52.25
2019-02-21T12:58:59.262Z,52.17
2019-02-21T13:00:02.786Z,52.23
2019-02-21T13:01:06.437Z,52.13
2019-02-21T13:02:09.916Z,52.10
2019-02-21T13:03:13.454Z,52.15
2019-02-21T13:04:18.633Z,52.09
2019-02-21T13:05:22.254Z,52.24
2019-02-21T13:06:25.868Z,52.27
2019-02-21T13:07:29.911Z,52.13
2019-02-21T13:08:33.356Z,51.91
2019-02-21T13:09:36.986Z,51.79
2019-02-21T13:10:40.489Z,51.62
2019-02-21T13:11:44.476Z,51.36
2019-02-21T13:12:48.001Z,51.34
2019-02-21T13:13:51.542Z,50.49
2019-02-21T13:14:54.975Z,49.82
2019-02-21T13:15:59.102Z,48.95
2019-02-21T13:17:02.544Z,48.46
2019-02-21T13:18:15.498Z,47.49
2019-02-21T13:19:11.385Z,47.84
2019-02-21T13:20:17.810Z,47.67
2019-02-21T13:21:21.259Z,47.38
2019-02-21T13:22:24.713Z,48.30
2019-02-21T13:23:28.306Z,48.52
2019-02-21T13:24:31.771Z,48.95
2019-02-21T13:25:35.267Z,49.11
2019-02-21T13:26:38.818Z,49.46
2019-02-21T13:27:42.248Z,49.38
2019-02-21T13:28:45.870Z,49.43
2019-02-21T13:29:49.405Z,49.13
2019-02-21T13:30:52.911Z,49.38
2019-02-21T13:31:56.415Z,49.08
2019-02-21T13:32:59.992Z,49.25
2019-02-21T13:34:03.453Z,48.97
2019-02-21T13:35:08.547Z,49.00
2019-02-21T13:36:11.972Z,48.32
2019-02-21T13:37:15.500Z,48.11
2019-02-21T13:38:18.960Z,47.72
2019-02-21T13:39:22.563Z,47.55
2019-02-21T13:40:26.005Z,47.80
2019-02-21T13:41:29.522Z,47.78
2019-02-21T13:42:33.048Z,48.24
2019-02-21T13:43:36.482Z,48.18
2019-02-21T13:44:39.942Z,48.28
2019-02-21T13:45:43.397Z,48.58
2019-02-21T13:46:46.849Z,48.41